sensor_id;sensor_type;location;lat;lon;timestamp;P1;durP1;ratioP1;P2;durP2;ratioP2
4182;SDS011;2105;52.300;9.182;2023-05-07T00:02:08;46.93;;;32.90;;
4182;SDS011;2105;52.300;9.182;2023-05-07T00:04:35;48.20;;;31.53;;
4182;SDS011;2105;52.300;9.182;2023-05-07T00:07:03;51.33;;;33.10;;
4182;SDS011;2105;52.300;9.182;2023-05-07T00:09:31;51.83;;;32.90;;
4182;SDS011;2105;52.300;9.182;2023-05-07T00:11:59;51.20;;;31.50;;
4182;SDS011;2105;52.300;9.182;2023-05-07T00:14:26;48.73;;;33.23;;
4182;SDS011;2105;52.300;9.182;2023-05-07T00:16:52;54.40;;;34.33;;
4182;SDS011;2105;52.300;9.182;2023-05-07T00:19:19;50.57;;;33.40;;
4182;SDS011;2105;52.300;9.182;2023-05-07T00:21:45;53.03;;;34.73;;
4182;SDS011;2105;52.300;9.182;2023-05-07T00:24:12;51.90;;;35.90;;
4182;SDS011;2105;52.300;9.182;2023-05-07T00:26:40;53.67;;;34.90;;
4182;SDS011;2105;52.300;9.182;2023-05-07T00:29:07;55.77;;;36.70;;
4182;SDS011;2105;52.300;9.182;2023-05-07T00:31:34;52.30;;;36.73;;
4182;SDS011;2105;52.300;9.182;2023-05-07T00:34:00;59.73;;;39.67;;
4182;SDS011;2105;52.300;9.182;2023-05-07T00:36:27;64.17;;;40.77;;
4182;SDS011;2105;52.300;9.182;2023-05-07T00:38:54;60.20;;;39.87;;
4182;SDS011;2105;52.300;9.182;2023-05-07T00:41:22;61.47;;;41.00;;
4182;SDS011;2105;52.300;9.182;2023-05-07T00:43:51;66.57;;;42.43;;
4182;SDS011;2105;52.300;9.182;2023-05-07T00:46:18;63.90;;;42.00;;
4182;SDS011;2105;52.300;9.182;2023-05-07T00:48:46;58.93;;;41.10;;
4182;SDS011;2105;52.300;9.182;2023-05-07T00:51:13;60.53;;;41.43;;
4182;SDS011;2105;52.300;9.182;2023-05-07T00:53:40;62.60;;;41.50;;
4182;SDS011;2105;52.300;9.182;2023-05-07T00:56:07;61.17;;;42.13;;
4182;SDS011;2105;52.300;9.182;2023-05-07T00:58:34;59.70;;;41.83;;
4182;SDS011;2105;52.300;9.182;2023-05-07T01:01:02;59.03;;;39.50;;
4182;SDS011;2105;52.300;9.182;2023-05-07T01:03:29;60.67;;;40.13;;
4182;SDS011;2105;52.300;9.182;2023-05-07T01:05:55;55.50;;;40.60;;
4182;SDS011;2105;52.300;9.182;2023-05-07T01:08:24;56.70;;;40.63;;
4182;SDS011;2105;52.300;9.182;2023-05-07T01:10:53;56.40;;;39.60;;
4182;SDS011;2105;52.300;9.182;2023-05-07T01:13:20;59.53;;;40.50;;
4182;SDS011;2105;52.300;9.182;2023-05-07T01:15:47;60.70;;;40.00;;
4182;SDS011;2105;52.300;9.182;2023-05-07T01:18:15;58.40;;;40.37;;
4182;SDS011;2105;52.300;9.182;2023-05-07T01:20:42;58.20;;;39.90;;
4182;SDS011;2105;52.300;9.182;2023-05-07T01:23:10;56.27;;;39.70;;
4182;SDS011;2105;52.300;9.182;2023-05-07T01:25:37;55.53;;;37.93;;
4182;SDS011;2105;52.300;9.182;2023-05-07T01:28:04;58.23;;;39.67;;
4182;SDS011;2105;52.300;9.182;2023-05-07T01:30:31;61.00;;;41.13;;
4182;SDS011;2105;52.300;9.182;2023-05-07T01:33:00;56.50;;;39.20;;
4182;SDS011;2105;52.300;9.182;2023-05-07T01:35:32;49.90;;;36.00;;
4182;SDS011;2105;52.300;9.182;2023-05-07T01:38:02;51.40;;;36.80;;
4182;SDS011;2105;52.300;9.182;2023-05-07T01:40:32;54.10;;;37.97;;
4182;SDS011;2105;52.300;9.182;2023-05-07T01:43:00;58.90;;;38.10;;
4182;SDS011;2105;52.300;9.182;2023-05-07T01:45:27;60.50;;;38.97;;
4182;SDS011;2105;52.300;9.182;2023-05-07T01:47:55;52.93;;;36.10;;
4182;SDS011;2105;52.300;9.182;2023-05-07T01:50:23;58.20;;;38.13;;
4182;SDS011;2105;52.300;9.182;2023-05-07T01:52:52;52.93;;;35.93;;
4182;SDS011;2105;52.300;9.182;2023-05-07T01:55:18;55.37;;;37.63;;
4182;SDS011;2105;52.300;9.182;2023-05-07T01:57:47;58.03;;;36.83;;
4182;SDS011;2105;52.300;9.182;2023-05-07T02:00:14;56.57;;;37.93;;
4182;SDS011;2105;52.300;9.182;2023-05-07T02:02:42;53.40;;;35.37;;
4182;SDS011;2105;52.300;9.182;2023-05-07T02:05:09;54.60;;;37.23;;
4182;SDS011;2105;52.300;9.182;2023-05-07T02:07:36;53.97;;;36.17;;
4182;SDS011;2105;52.300;9.182;2023-05-07T02:10:03;59.33;;;37.23;;
4182;SDS011;2105;52.300;9.182;2023-05-07T02:12:30;57.63;;;35.80;;
4182;SDS011;2105;52.300;9.182;2023-05-07T02:14:58;52.03;;;35.17;;
4182;SDS011;2105;52.300;9.182;2023-05-07T02:17:25;56.10;;;36.37;;
4182;SDS011;2105;52.300;9.182;2023-05-07T02:19:51;52.77;;;35.70;;
4182;SDS011;2105;52.300;9.182;2023-05-07T02:22:18;55.33;;;35.13;;
4182;SDS011;2105;52.300;9.182;2023-05-07T02:24:45;54.10;;;35.67;;
4182;SDS011;2105;52.300;9.182;2023-05-07T02:27:11;57.97;;;33.70;;
4182;SDS011;2105;52.300;9.182;2023-05-07T02:29:38;50.90;;;33.93;;
4182;SDS011;2105;52.300;9.182;2023-05-07T02:32:06;53.50;;;32.73;;
4182;SDS011;2105;52.300;9.182;2023-05-07T02:34:33;52.50;;;34.07;;
4182;SDS011;2105;52.300;9.182;2023-05-07T02:37:00;54.47;;;34.67;;
4182;SDS011;2105;52.300;9.182;2023-05-07T02:39:26;50.10;;;33.27;;
4182;SDS011;2105;52.300;9.182;2023-05-07T02:41:53;55.37;;;33.70;;
4182;SDS011;2105;52.300;9.182;2023-05-07T02:44:19;50.50;;;32.97;;
4182;SDS011;2105;52.300;9.182;2023-05-07T02:46:46;51.57;;;32.20;;
4182;SDS011;2105;52.300;9.182;2023-05-07T02:49:14;56.77;;;33.37;;
4182;SDS011;2105;52.300;9.182;2023-05-07T02:51:41;53.57;;;33.30;;
4182;SDS011;2105;52.300;9.182;2023-05-07T02:54:08;54.47;;;32.33;;
4182;SDS011;2105;52.300;9.182;2023-05-07T02:56:34;51.20;;;32.60;;
4182;SDS011;2105;52.300;9.182;2023-05-07T02:59:01;53.80;;;33.50;;
4182;SDS011;2105;52.300;9.182;2023-05-07T03:01:28;51.67;;;33.00;;
4182;SDS011;2105;52.300;9.182;2023-05-07T03:03:54;56.50;;;34.10;;
4182;SDS011;2105;52.300;9.182;2023-05-07T03:06:23;58.10;;;33.10;;
4182;SDS011;2105;52.300;9.182;2023-05-07T03:08:49;53.53;;;32.70;;
4182;SDS011;2105;52.300;9.182;2023-05-07T03:11:16;59.80;;;34.00;;
4182;SDS011;2105;52.300;9.182;2023-05-07T03:13:43;52.47;;;34.07;;
4182;SDS011;2105;52.300;9.182;2023-05-07T03:16:10;57.40;;;34.77;;
4182;SDS011;2105;52.300;9.182;2023-05-07T03:18:36;53.30;;;32.47;;
4182;SDS011;2105;52.300;9.182;2023-05-07T03:21:03;60.53;;;35.10;;
4182;SDS011;2105;52.300;9.182;2023-05-07T03:23:31;58.50;;;33.37;;
4182;SDS011;2105;52.300;9.182;2023-05-07T03:25:58;54.43;;;32.27;;
4182;SDS011;2105;52.300;9.182;2023-05-07T03:28:24;53.73;;;31.17;;
4182;SDS011;2105;52.300;9.182;2023-05-07T03:30:51;47.17;;;31.07;;
4182;SDS011;2105;52.300;9.182;2023-05-07T03:33:18;53.20;;;31.63;;
4182;SDS011;2105;52.300;9.182;2023-05-07T03:35:44;45.43;;;30.90;;
4182;SDS011;2105;52.300;9.182;2023-05-07T03:38:11;47.50;;;29.87;;
4182;SDS011;2105;52.300;9.182;2023-05-07T03:40:39;48.17;;;29.93;;
4182;SDS011;2105;52.300;9.182;2023-05-07T03:43:06;45.93;;;28.23;;
4182;SDS011;2105;52.300;9.182;2023-05-07T03:45:33;41.40;;;28.40;;
4182;SDS011;2105;52.300;9.182;2023-05-07T03:47:59;49.47;;;30.03;;
4182;SDS011;2105;52.300;9.182;2023-05-07T03:50:26;45.83;;;28.77;;
4182;SDS011;2105;52.300;9.182;2023-05-07T03:52:53;42.30;;;27.60;;
4182;SDS011;2105;52.300;9.182;2023-05-07T03:55:19;39.50;;;26.80;;
4182;SDS011;2105;52.300;9.182;2023-05-07T03:57:48;43.10;;;28.00;;
4182;SDS011;2105;52.300;9.182;2023-05-07T04:00:14;42.00;;;27.10;;
4182;SDS011;2105;52.300;9.182;2023-05-07T04:02:41;43.17;;;27.77;;
4182;SDS011;2105;52.300;9.182;2023-05-07T04:05:08;46.67;;;26.47;;
4182;SDS011;2105;52.300;9.182;2023-05-07T04:07:35;40.93;;;26.67;;
4182;SDS011;2105;52.300;9.182;2023-05-07T04:10:01;40.27;;;25.73;;
4182;SDS011;2105;52.300;9.182;2023-05-07T04:12:28;38.60;;;26.10;;
4182;SDS011;2105;52.300;9.182;2023-05-07T04:14:56;39.03;;;25.10;;
4182;SDS011;2105;52.300;9.182;2023-05-07T04:17:23;37.60;;;25.30;;
4182;SDS011;2105;52.300;9.182;2023-05-07T04:19:50;37.80;;;24.90;;
4182;SDS011;2105;52.300;9.182;2023-05-07T04:22:16;37.33;;;25.43;;
4182;SDS011;2105;52.300;9.182;2023-05-07T04:24:43;39.13;;;25.53;;
4182;SDS011;2105;52.300;9.182;2023-05-07T04:27:09;34.97;;;24.57;;
4182;SDS011;2105;52.300;9.182;2023-05-07T04:29:36;35.37;;;23.80;;
4182;SDS011;2105;52.300;9.182;2023-05-07T04:32:08;41.63;;;24.00;;
4182;SDS011;2105;52.300;9.182;2023-05-07T04:34:35;34.90;;;25.53;;
4182;SDS011;2105;52.300;9.182;2023-05-07T04:37:01;36.73;;;25.10;;
4182;SDS011;2105;52.300;9.182;2023-05-07T04:39:28;34.87;;;24.53;;
4182;SDS011;2105;52.300;9.182;2023-05-07T04:41:55;38.40;;;26.03;;
4182;SDS011;2105;52.300;9.182;2023-05-07T04:44:21;34.80;;;24.60;;
4182;SDS011;2105;52.300;9.182;2023-05-07T04:46:48;34.23;;;24.07;;
4182;SDS011;2105;52.300;9.182;2023-05-07T04:49:16;33.97;;;24.17;;
4182;SDS011;2105;52.300;9.182;2023-05-07T04:51:43;33.47;;;24.13;;
4182;SDS011;2105;52.300;9.182;2023-05-07T04:54:09;36.10;;;25.67;;
4182;SDS011;2105;52.300;9.182;2023-05-07T04:56:36;33.07;;;23.73;;
4182;SDS011;2105;52.300;9.182;2023-05-07T04:59:03;33.70;;;25.40;;
4182;SDS011;2105;52.300;9.182;2023-05-07T05:01:29;34.30;;;25.33;;
4182;SDS011;2105;52.300;9.182;2023-05-07T05:03:56;34.90;;;25.63;;
4182;SDS011;2105;52.300;9.182;2023-05-07T05:06:24;37.00;;;25.50;;
4182;SDS011;2105;52.300;9.182;2023-05-07T05:08:51;39.40;;;27.27;;
4182;SDS011;2105;52.300;9.182;2023-05-07T05:11:17;33.17;;;24.17;;
4182;SDS011;2105;52.300;9.182;2023-05-07T05:13:44;34.73;;;25.57;;
4182;SDS011;2105;52.300;9.182;2023-05-07T05:16:13;34.20;;;23.37;;
4182;SDS011;2105;52.300;9.182;2023-05-07T05:18:39;32.70;;;23.07;;
4182;SDS011;2105;52.300;9.182;2023-05-07T05:21:06;32.73;;;23.37;;
4182;SDS011;2105;52.300;9.182;2023-05-07T05:23:34;34.80;;;24.90;;
4182;SDS011;2105;52.300;9.182;2023-05-07T05:26:01;27.60;;;22.77;;
4182;SDS011;2105;52.300;9.182;2023-05-07T05:28:27;30.67;;;21.90;;
4182;SDS011;2105;52.300;9.182;2023-05-07T05:30:55;32.13;;;22.87;;
4182;SDS011;2105;52.300;9.182;2023-05-07T05:33:21;31.33;;;22.73;;
4182;SDS011;2105;52.300;9.182;2023-05-07T05:35:49;32.53;;;23.20;;
4182;SDS011;2105;52.300;9.182;2023-05-07T05:38:15;29.97;;;23.00;;
4182;SDS011;2105;52.300;9.182;2023-05-07T05:40:43;28.13;;;22.50;;
4182;SDS011;2105;52.300;9.182;2023-05-07T05:43:10;31.73;;;22.87;;
4182;SDS011;2105;52.300;9.182;2023-05-07T05:45:37;30.60;;;22.10;;
4182;SDS011;2105;52.300;9.182;2023-05-07T05:48:03;29.77;;;22.93;;
4182;SDS011;2105;52.300;9.182;2023-05-07T05:50:30;28.77;;;22.50;;
4182;SDS011;2105;52.300;9.182;2023-05-07T05:52:57;30.23;;;21.40;;
4182;SDS011;2105;52.300;9.182;2023-05-07T05:55:23;29.50;;;22.13;;
4182;SDS011;2105;52.300;9.182;2023-05-07T05:57:52;33.00;;;22.70;;
4182;SDS011;2105;52.300;9.182;2023-05-07T06:00:18;31.23;;;22.13;;
4182;SDS011;2105;52.300;9.182;2023-05-07T06:02:47;30.80;;;21.57;;
4182;SDS011;2105;52.300;9.182;2023-05-07T06:05:14;31.67;;;22.47;;
4182;SDS011;2105;52.300;9.182;2023-05-07T06:07:40;28.70;;;21.17;;
4182;SDS011;2105;52.300;9.182;2023-05-07T06:10:07;31.30;;;21.10;;
4182;SDS011;2105;52.300;9.182;2023-05-07T06:12:34;28.60;;;20.97;;
4182;SDS011;2105;52.300;9.182;2023-05-07T06:15:02;26.23;;;20.40;;
4182;SDS011;2105;52.300;9.182;2023-05-07T06:17:29;27.27;;;20.90;;
4182;SDS011;2105;52.300;9.182;2023-05-07T06:19:56;28.73;;;20.30;;
4182;SDS011;2105;52.300;9.182;2023-05-07T06:22:23;30.77;;;21.27;;
4182;SDS011;2105;52.300;9.182;2023-05-07T06:24:50;29.43;;;19.97;;
4182;SDS011;2105;52.300;9.182;2023-05-07T06:27:16;28.57;;;19.97;;
4182;SDS011;2105;52.300;9.182;2023-05-07T06:29:43;28.00;;;18.57;;
4182;SDS011;2105;52.300;9.182;2023-05-07T06:32:11;26.43;;;19.13;;
4182;SDS011;2105;52.300;9.182;2023-05-07T06:34:39;24.90;;;19.00;;
4182;SDS011;2105;52.300;9.182;2023-05-07T06:37:07;24.93;;;18.33;;
4182;SDS011;2105;52.300;9.182;2023-05-07T06:39:33;31.37;;;19.37;;
4182;SDS011;2105;52.300;9.182;2023-05-07T06:42:00;25.03;;;18.03;;
4182;SDS011;2105;52.300;9.182;2023-05-07T06:44:27;23.67;;;18.00;;
4182;SDS011;2105;52.300;9.182;2023-05-07T06:46:54;28.10;;;20.10;;
4182;SDS011;2105;52.300;9.182;2023-05-07T06:49:22;28.63;;;19.47;;
4182;SDS011;2105;52.300;9.182;2023-05-07T06:51:49;22.60;;;17.37;;
4182;SDS011;2105;52.300;9.182;2023-05-07T06:54:16;26.00;;;19.33;;
4182;SDS011;2105;52.300;9.182;2023-05-07T06:56:42;25.23;;;17.60;;
4182;SDS011;2105;52.300;9.182;2023-05-07T06:59:09;24.30;;;17.83;;
4182;SDS011;2105;52.300;9.182;2023-05-07T07:01:36;28.23;;;18.30;;
4182;SDS011;2105;52.300;9.182;2023-05-07T07:04:02;25.40;;;18.00;;
4182;SDS011;2105;52.300;9.182;2023-05-07T07:06:31;27.17;;;17.93;;
4182;SDS011;2105;52.300;9.182;2023-05-07T07:08:57;26.67;;;18.53;;
4182;SDS011;2105;52.300;9.182;2023-05-07T07:11:24;28.33;;;19.27;;
4182;SDS011;2105;52.300;9.182;2023-05-07T07:13:52;26.17;;;18.80;;
4182;SDS011;2105;52.300;9.182;2023-05-07T07:16:19;26.30;;;18.73;;
4182;SDS011;2105;52.300;9.182;2023-05-07T07:18:46;23.63;;;17.83;;
4182;SDS011;2105;52.300;9.182;2023-05-07T07:21:12;27.00;;;18.67;;
4182;SDS011;2105;52.300;9.182;2023-05-07T07:23:41;26.73;;;18.60;;
4182;SDS011;2105;52.300;9.182;2023-05-07T07:26:07;26.10;;;17.77;;
4182;SDS011;2105;52.300;9.182;2023-05-07T07:28:34;25.83;;;17.87;;
4182;SDS011;2105;52.300;9.182;2023-05-07T07:31:01;22.47;;;17.57;;
4182;SDS011;2105;52.300;9.182;2023-05-07T07:33:27;26.57;;;19.70;;
4182;SDS011;2105;52.300;9.182;2023-05-07T07:35:55;24.47;;;17.70;;
4182;SDS011;2105;52.300;9.182;2023-05-07T07:38:21;22.27;;;16.70;;
4182;SDS011;2105;52.300;9.182;2023-05-07T07:40:49;26.20;;;18.10;;
4182;SDS011;2105;52.300;9.182;2023-05-07T07:43:16;25.90;;;17.23;;
4182;SDS011;2105;52.300;9.182;2023-05-07T07:45:43;25.17;;;17.77;;
4182;SDS011;2105;52.300;9.182;2023-05-07T07:48:10;23.57;;;17.90;;
4182;SDS011;2105;52.300;9.182;2023-05-07T07:50:37;26.60;;;18.07;;
4182;SDS011;2105;52.300;9.182;2023-05-07T07:53:04;32.50;;;19.13;;
4182;SDS011;2105;52.300;9.182;2023-05-07T07:55:31;23.60;;;18.23;;
4182;SDS011;2105;52.300;9.182;2023-05-07T07:57:59;25.97;;;18.03;;
4182;SDS011;2105;52.300;9.182;2023-05-07T08:00:25;24.07;;;17.10;;
4182;SDS011;2105;52.300;9.182;2023-05-07T08:02:52;26.33;;;18.60;;
4182;SDS011;2105;52.300;9.182;2023-05-07T08:05:19;25.30;;;17.80;;
4182;SDS011;2105;52.300;9.182;2023-05-07T08:07:45;27.10;;;17.27;;
4182;SDS011;2105;52.300;9.182;2023-05-07T08:10:16;23.00;;;17.23;;
4182;SDS011;2105;52.300;9.182;2023-05-07T08:12:46;29.20;;;18.60;;
4182;SDS011;2105;52.300;9.182;2023-05-07T08:15:14;26.60;;;17.77;;
4182;SDS011;2105;52.300;9.182;2023-05-07T08:17:41;22.73;;;16.87;;
4182;SDS011;2105;52.300;9.182;2023-05-07T08:20:08;23.37;;;17.40;;
4182;SDS011;2105;52.300;9.182;2023-05-07T08:22:35;26.33;;;19.70;;
4182;SDS011;2105;52.300;9.182;2023-05-07T08:25:02;25.83;;;17.60;;
4182;SDS011;2105;52.300;9.182;2023-05-07T08:27:30;22.00;;;17.63;;
4182;SDS011;2105;52.300;9.182;2023-05-07T08:29:56;22.07;;;17.23;;
4182;SDS011;2105;52.300;9.182;2023-05-07T08:32:24;25.57;;;18.47;;
4182;SDS011;2105;52.300;9.182;2023-05-07T08:34:51;22.83;;;16.13;;
4182;SDS011;2105;52.300;9.182;2023-05-07T08:37:18;23.97;;;18.97;;
4182;SDS011;2105;52.300;9.182;2023-05-07T08:39:45;22.20;;;16.47;;
4182;SDS011;2105;52.300;9.182;2023-05-07T08:42:11;22.10;;;17.23;;
4182;SDS011;2105;52.300;9.182;2023-05-07T08:44:42;23.93;;;16.87;;
4182;SDS011;2105;52.300;9.182;2023-05-07T08:47:11;21.70;;;16.00;;
4182;SDS011;2105;52.300;9.182;2023-05-07T08:49:40;21.33;;;16.30;;
4182;SDS011;2105;52.300;9.182;2023-05-07T08:52:06;20.30;;;15.80;;
4182;SDS011;2105;52.300;9.182;2023-05-07T08:54:33;17.73;;;14.77;;
4182;SDS011;2105;52.300;9.182;2023-05-07T08:57:01;18.30;;;15.10;;
4182;SDS011;2105;52.300;9.182;2023-05-07T08:59:28;18.87;;;15.90;;
4182;SDS011;2105;52.300;9.182;2023-05-07T09:01:54;20.37;;;16.40;;
4182;SDS011;2105;52.300;9.182;2023-05-07T09:04:21;20.00;;;15.70;;
4182;SDS011;2105;52.300;9.182;2023-05-07T09:06:49;17.90;;;15.97;;
4182;SDS011;2105;52.300;9.182;2023-05-07T09:09:17;17.63;;;15.73;;
4182;SDS011;2105;52.300;9.182;2023-05-07T09:11:44;18.60;;;16.57;;
4182;SDS011;2105;52.300;9.182;2023-05-07T09:14:11;17.93;;;15.70;;
4182;SDS011;2105;52.300;9.182;2023-05-07T09:16:37;18.47;;;15.30;;
4182;SDS011;2105;52.300;9.182;2023-05-07T09:19:05;18.13;;;16.23;;
4182;SDS011;2105;52.300;9.182;2023-05-07T09:21:31;19.37;;;15.93;;
4182;SDS011;2105;52.300;9.182;2023-05-07T09:23:59;16.77;;;15.00;;
4182;SDS011;2105;52.300;9.182;2023-05-07T09:26:26;16.27;;;14.53;;
4182;SDS011;2105;52.300;9.182;2023-05-07T09:28:53;15.77;;;14.07;;
4182;SDS011;2105;52.300;9.182;2023-05-07T09:31:20;17.07;;;15.00;;
4182;SDS011;2105;52.300;9.182;2023-05-07T09:33:48;16.07;;;14.47;;
4182;SDS011;2105;52.300;9.182;2023-05-07T09:36:15;17.00;;;15.20;;
4182;SDS011;2105;52.300;9.182;2023-05-07T09:38:42;20.73;;;15.23;;
4182;SDS011;2105;52.300;9.182;2023-05-07T09:41:10;18.10;;;15.73;;
4182;SDS011;2105;52.300;9.182;2023-05-07T09:43:38;14.90;;;13.60;;
4182;SDS011;2105;52.300;9.182;2023-05-07T09:46:06;16.80;;;14.73;;
4182;SDS011;2105;52.300;9.182;2023-05-07T09:48:38;17.87;;;16.10;;
4182;SDS011;2105;52.300;9.182;2023-05-07T09:51:11;17.13;;;15.43;;
4182;SDS011;2105;52.300;9.182;2023-05-07T09:53:51;17.17;;;15.53;;
4182;SDS011;2105;52.300;9.182;2023-05-07T09:56:20;16.97;;;15.10;;
4182;SDS011;2105;52.300;9.182;2023-05-07T09:58:48;16.70;;;15.00;;
4182;SDS011;2105;52.300;9.182;2023-05-07T10:01:17;17.10;;;15.40;;
4182;SDS011;2105;52.300;9.182;2023-05-07T10:03:47;17.33;;;15.63;;
4182;SDS011;2105;52.300;9.182;2023-05-07T10:06:15;17.57;;;15.67;;
4182;SDS011;2105;52.300;9.182;2023-05-07T10:08:43;17.07;;;15.17;;
4182;SDS011;2105;52.300;9.182;2023-05-07T10:11:10;18.63;;;16.00;;
4182;SDS011;2105;52.300;9.182;2023-05-07T10:13:39;18.20;;;16.50;;
4182;SDS011;2105;52.300;9.182;2023-05-07T10:16:07;16.80;;;15.20;;
4182;SDS011;2105;52.300;9.182;2023-05-07T10:18:34;19.17;;;17.37;;
4182;SDS011;2105;52.300;9.182;2023-05-07T10:21:02;19.07;;;17.03;;
4182;SDS011;2105;52.300;9.182;2023-05-07T10:23:32;20.73;;;18.73;;
4182;SDS011;2105;52.300;9.182;2023-05-07T10:26:00;18.90;;;16.90;;
4182;SDS011;2105;52.300;9.182;2023-05-07T10:28:30;18.87;;;17.07;;
4182;SDS011;2105;52.300;9.182;2023-05-07T10:31:13;19.00;;;17.10;;
4182;SDS011;2105;52.300;9.182;2023-05-07T10:33:48;21.40;;;17.47;;
4182;SDS011;2105;52.300;9.182;2023-05-07T10:36:17;18.70;;;16.90;;
4182;SDS011;2105;52.300;9.182;2023-05-07T10:38:44;19.20;;;17.40;;
4182;SDS011;2105;52.300;9.182;2023-05-07T10:41:11;20.50;;;18.40;;
4182;SDS011;2105;52.300;9.182;2023-05-07T10:43:40;20.13;;;18.10;;
4182;SDS011;2105;52.300;9.182;2023-05-07T10:46:14;20.87;;;18.77;;
4182;SDS011;2105;52.300;9.182;2023-05-07T10:51:33;18.00;;;16.37;;
4182;SDS011;2105;52.300;9.182;2023-05-07T10:54:20;19.30;;;16.40;;
4182;SDS011;2105;52.300;9.182;2023-05-07T10:56:48;19.13;;;17.20;;
4182;SDS011;2105;52.300;9.182;2023-05-07T10:59:35;17.63;;;15.83;;
4182;SDS011;2105;52.300;9.182;2023-05-07T11:02:09;18.33;;;16.20;;
4182;SDS011;2105;52.300;9.182;2023-05-07T11:04:39;18.10;;;16.33;;
4182;SDS011;2105;52.300;9.182;2023-05-07T11:10:02;18.30;;;16.60;;
4182;SDS011;2105;52.300;9.182;2023-05-07T11:12:46;21.90;;;15.90;;
4182;SDS011;2105;52.300;9.182;2023-05-07T11:15:14;18.10;;;16.33;;
4182;SDS011;2105;52.300;9.182;2023-05-07T11:17:53;19.07;;;17.10;;
4182;SDS011;2105;52.300;9.182;2023-05-07T11:20:21;19.30;;;17.20;;
4182;SDS011;2105;52.300;9.182;2023-05-07T11:26:17;19.60;;;17.70;;
4182;SDS011;2105;52.300;9.182;2023-05-07T11:28:43;18.70;;;16.93;;
4182;SDS011;2105;52.300;9.182;2023-05-07T11:31:10;20.60;;;18.50;;
4182;SDS011;2105;52.300;9.182;2023-05-07T11:33:37;20.43;;;18.40;;
4182;SDS011;2105;52.300;9.182;2023-05-07T11:36:07;20.93;;;18.93;;
4182;SDS011;2105;52.300;9.182;2023-05-07T11:38:35;20.40;;;18.40;;
4182;SDS011;2105;52.300;9.182;2023-05-07T11:41:02;20.53;;;18.30;;
4182;SDS011;2105;52.300;9.182;2023-05-07T11:43:30;22.40;;;19.40;;
4182;SDS011;2105;52.300;9.182;2023-05-07T11:46:04;21.47;;;19.27;;
4182;SDS011;2105;52.300;9.182;2023-05-07T11:48:32;21.77;;;19.70;;
4182;SDS011;2105;52.300;9.182;2023-05-07T11:51:00;22.43;;;20.20;;
4182;SDS011;2105;52.300;9.182;2023-05-07T11:53:35;21.17;;;19.27;;
4182;SDS011;2105;52.300;9.182;2023-05-07T11:56:06;22.60;;;20.40;;
4182;SDS011;2105;52.300;9.182;2023-05-07T11:58:33;24.83;;;22.27;;
4182;SDS011;2105;52.300;9.182;2023-05-07T12:01:03;21.87;;;19.90;;
4182;SDS011;2105;52.300;9.182;2023-05-07T12:03:34;22.83;;;20.67;;
4182;SDS011;2105;52.300;9.182;2023-05-07T12:09:32;23.33;;;21.23;;
4182;SDS011;2105;52.300;9.182;2023-05-07T12:13:23;21.20;;;19.40;;
4182;SDS011;2105;52.300;9.182;2023-05-07T12:19:44;21.23;;;19.33;;
4182;SDS011;2105;52.300;9.182;2023-05-07T12:42:40;22.73;;;20.67;;
4182;SDS011;2105;52.300;9.182;2023-05-07T12:55:13;23.77;;;21.67;;
4182;SDS011;2105;52.300;9.182;2023-05-07T12:57:42;21.50;;;19.60;;
4182;SDS011;2105;52.300;9.182;2023-05-07T13:00:11;21.50;;;19.70;;
4182;SDS011;2105;52.300;9.182;2023-05-07T13:02:39;21.03;;;19.07;;
4182;SDS011;2105;52.300;9.182;2023-05-07T13:05:09;21.63;;;19.73;;
4182;SDS011;2105;52.300;9.182;2023-05-07T13:07:36;20.87;;;19.17;;
4182;SDS011;2105;52.300;9.182;2023-05-07T13:10:03;21.20;;;19.43;;
4182;SDS011;2105;52.300;9.182;2023-05-07T13:12:30;21.80;;;20.00;;
4182;SDS011;2105;52.300;9.182;2023-05-07T13:14:58;22.03;;;20.07;;
4182;SDS011;2105;52.300;9.182;2023-05-07T13:17:25;20.90;;;19.07;;
4182;SDS011;2105;52.300;9.182;2023-05-07T13:19:51;21.93;;;20.13;;
4182;SDS011;2105;52.300;9.182;2023-05-07T13:22:18;21.53;;;19.83;;
4182;SDS011;2105;52.300;9.182;2023-05-07T13:24:44;21.40;;;19.63;;
4182;SDS011;2105;52.300;9.182;2023-05-07T13:27:11;20.73;;;18.90;;
4182;SDS011;2105;52.300;9.182;2023-05-07T13:29:37;20.30;;;18.63;;
4182;SDS011;2105;52.300;9.182;2023-05-07T13:32:05;21.27;;;19.33;;
4182;SDS011;2105;52.300;9.182;2023-05-07T13:34:32;19.87;;;18.30;;
4182;SDS011;2105;52.300;9.182;2023-05-07T13:36:59;21.00;;;19.20;;
4182;SDS011;2105;52.300;9.182;2023-05-07T13:39:25;20.73;;;19.13;;
4182;SDS011;2105;52.300;9.182;2023-05-07T13:41:52;20.20;;;18.40;;
4182;SDS011;2105;52.300;9.182;2023-05-07T13:44:19;20.40;;;18.70;;
4182;SDS011;2105;52.300;9.182;2023-05-07T13:46:45;20.73;;;18.93;;
4182;SDS011;2105;52.300;9.182;2023-05-07T13:49:13;20.97;;;19.23;;
4182;SDS011;2105;52.300;9.182;2023-05-07T13:51:40;19.03;;;17.33;;
4182;SDS011;2105;52.300;9.182;2023-05-07T13:54:06;21.13;;;19.30;;
4182;SDS011;2105;52.300;9.182;2023-05-07T13:56:33;19.93;;;18.40;;
4182;SDS011;2105;52.300;9.182;2023-05-07T13:59:00;21.47;;;19.57;;
4182;SDS011;2105;52.300;9.182;2023-05-07T14:01:27;20.50;;;18.80;;
4182;SDS011;2105;52.300;9.182;2023-05-07T14:03:53;20.10;;;18.30;;
4182;SDS011;2105;52.300;9.182;2023-05-07T14:06:22;18.63;;;17.23;;
4182;SDS011;2105;52.300;9.182;2023-05-07T14:08:49;20.13;;;18.00;;
4182;SDS011;2105;52.300;9.182;2023-05-07T14:11:16;19.80;;;18.10;;
4182;SDS011;2105;52.300;9.182;2023-05-07T14:13:42;18.83;;;17.50;;
4182;SDS011;2105;52.300;9.182;2023-05-07T14:16:09;19.30;;;17.80;;
4182;SDS011;2105;52.300;9.182;2023-05-07T14:18:36;18.80;;;17.40;;
4182;SDS011;2105;52.300;9.182;2023-05-07T14:21:04;20.10;;;18.00;;
4182;SDS011;2105;52.300;9.182;2023-05-07T14:23:32;19.47;;;17.77;;
4182;SDS011;2105;52.300;9.182;2023-05-07T14:25:59;19.07;;;17.57;;
4182;SDS011;2105;52.300;9.182;2023-05-07T14:28:25;18.93;;;17.53;;
4182;SDS011;2105;52.300;9.182;2023-05-07T14:30:52;19.00;;;17.60;;
4182;SDS011;2105;52.300;9.182;2023-05-07T14:33:18;18.97;;;17.53;;
4182;SDS011;2105;52.300;9.182;2023-05-07T14:35:45;19.20;;;17.70;;
4182;SDS011;2105;52.300;9.182;2023-05-07T14:38:13;20.83;;;19.13;;
4182;SDS011;2105;52.300;9.182;2023-05-07T14:40:41;20.80;;;19.10;;
4182;SDS011;2105;52.300;9.182;2023-05-07T14:43:08;20.37;;;18.77;;
4182;SDS011;2105;52.300;9.182;2023-05-07T14:45:35;22.00;;;20.10;;
4182;SDS011;2105;52.300;9.182;2023-05-07T14:48:01;23.50;;;21.17;;
4182;SDS011;2105;52.300;9.182;2023-05-07T14:50:28;23.50;;;21.50;;
4182;SDS011;2105;52.300;9.182;2023-05-07T14:52:55;23.20;;;21.30;;
4182;SDS011;2105;52.300;9.182;2023-05-07T14:55:21;22.67;;;20.80;;
4182;SDS011;2105;52.300;9.182;2023-05-07T14:57:49;22.37;;;20.43;;
4182;SDS011;2105;52.300;9.182;2023-05-07T15:00:16;23.10;;;21.20;;
4182;SDS011;2105;52.300;9.182;2023-05-07T15:02:43;23.97;;;21.87;;
4182;SDS011;2105;52.300;9.182;2023-05-07T15:05:10;23.97;;;21.67;;
4182;SDS011;2105;52.300;9.182;2023-05-07T15:07:36;23.63;;;21.53;;
4182;SDS011;2105;52.300;9.182;2023-05-07T15:10:03;22.40;;;20.60;;
4182;SDS011;2105;52.300;9.182;2023-05-07T15:12:30;22.47;;;20.77;;
4182;SDS011;2105;52.300;9.182;2023-05-07T15:14:58;22.67;;;20.87;;
4182;SDS011;2105;52.300;9.182;2023-05-07T15:17:25;23.47;;;21.40;;
4182;SDS011;2105;52.300;9.182;2023-05-07T15:19:52;22.90;;;21.10;;
4182;SDS011;2105;52.300;9.182;2023-05-07T15:22:18;23.97;;;21.87;;
4182;SDS011;2105;52.300;9.182;2023-05-07T15:24:46;26.53;;;24.23;;
4182;SDS011;2105;52.300;9.182;2023-05-07T15:27:12;51.00;;;37.90;;
4182;SDS011;2105;52.300;9.182;2023-05-07T15:29:39;29.57;;;26.40;;
4182;SDS011;2105;52.300;9.182;2023-05-07T15:32:07;26.50;;;23.90;;
4182;SDS011;2105;52.300;9.182;2023-05-07T15:34:34;25.30;;;23.00;;
4182;SDS011;2105;52.300;9.182;2023-05-07T15:37:00;32.50;;;29.27;;
4182;SDS011;2105;52.300;9.182;2023-05-07T15:39:27;24.17;;;21.87;;